sensor_id;sensor_type;location;lat;lon;timestamp;P1;durP1;ratioP1;P2;durP2;ratioP2
23410;SDS011;11878;51.774;7.220;2022-12-18T00:02:27;22.23;;;9.47;;
23410;SDS011;11878;51.774;7.220;2022-12-18T00:05:29;18.73;;;9.97;;
23410;SDS011;11878;51.774;7.220;2022-12-18T00:08:31;22.83;;;10.43;;
23410;SDS011;11878;51.774;7.220;2022-12-18T00:11:33;30.03;;;12.40;;
23410;SDS011;11878;51.774;7.220;2022-12-18T00:14:34;28.10;;;12.10;;
23410;SDS011;11878;51.774;7.220;2022-12-18T00:17:36;25.87;;;13.10;;
23410;SDS011;11878;51.774;7.220;2022-12-18T00:20:38;21.87;;;12.10;;
23410;SDS011;11878;51.774;7.220;2022-12-18T00:23:41;20.17;;;10.33;;
23410;SDS011;11878;51.774;7.220;2022-12-18T00:26:44;22.43;;;11.50;;
23410;SDS011;11878;51.774;7.220;2022-12-18T00:29:47;21.03;;;10.00;;
23410;SDS011;11878;51.774;7.220;2022-12-18T00:32:50;21.67;;;9.33;;
23410;SDS011;11878;51.774;7.220;2022-12-18T00:35:51;24.43;;;10.43;;
23410;SDS011;11878;51.774;7.220;2022-12-18T00:38:53;24.50;;;10.53;;
23410;SDS011;11878;51.774;7.220;2022-12-18T00:41:56;22.03;;;10.73;;
23410;SDS011;11878;51.774;7.220;2022-12-18T00:45:16;25.20;;;9.43;;
23410;SDS011;11878;51.774;7.220;2022-12-18T00:48:20;16.33;;;9.67;;
23410;SDS011;11878;51.774;7.220;2022-12-18T00:51:22;17.80;;;9.60;;
23410;SDS011;11878;51.774;7.220;2022-12-18T00:54:24;19.57;;;9.33;;
23410;SDS011;11878;51.774;7.220;2022-12-18T00:57:26;19.53;;;9.53;;
23410;SDS011;11878;51.774;7.220;2022-12-18T01:00:28;27.90;;;11.77;;
23410;SDS011;11878;51.774;7.220;2022-12-18T01:03:29;25.30;;;11.50;;
23410;SDS011;11878;51.774;7.220;2022-12-18T01:06:31;22.33;;;9.83;;
23410;SDS011;11878;51.774;7.220;2022-12-18T01:09:33;20.53;;;10.63;;
23410;SDS011;11878;51.774;7.220;2022-12-18T01:12:35;26.07;;;11.93;;
23410;SDS011;11878;51.774;7.220;2022-12-18T01:15:37;11.77;;;7.83;;
23410;SDS011;11878;51.774;7.220;2022-12-18T01:18:39;20.93;;;10.03;;
23410;SDS011;11878;51.774;7.220;2022-12-18T01:21:41;21.13;;;10.30;;
23410;SDS011;11878;51.774;7.220;2022-12-18T01:24:42;26.87;;;9.97;;
23410;SDS011;11878;51.774;7.220;2022-12-18T01:27:44;24.57;;;11.43;;
23410;SDS011;11878;51.774;7.220;2022-12-18T01:30:46;20.00;;;10.63;;
23410;SDS011;11878;51.774;7.220;2022-12-18T01:33:48;15.80;;;6.97;;
23410;SDS011;11878;51.774;7.220;2022-12-18T01:36:50;19.03;;;9.17;;
23410;SDS011;11878;51.774;7.220;2022-12-18T01:39:53;20.93;;;9.77;;
23410;SDS011;11878;51.774;7.220;2022-12-18T01:42:55;19.67;;;9.83;;
23410;SDS011;11878;51.774;7.220;2022-12-18T01:45:59;21.30;;;10.80;;
23410;SDS011;11878;51.774;7.220;2022-12-18T01:49:01;23.50;;;10.43;;
23410;SDS011;11878;51.774;7.220;2022-12-18T01:52:03;19.30;;;9.83;;
23410;SDS011;11878;51.774;7.220;2022-12-18T01:55:05;23.47;;;9.77;;
23410;SDS011;11878;51.774;7.220;2022-12-18T01:58:07;18.33;;;9.23;;
23410;SDS011;11878;51.774;7.220;2022-12-18T02:01:09;24.13;;;12.10;;
23410;SDS011;11878;51.774;7.220;2022-12-18T02:04:18;15.60;;;9.30;;
23410;SDS011;11878;51.774;7.220;2022-12-18T02:13:46;18.77;;;9.23;;
23410;SDS011;11878;51.774;7.220;2022-12-18T02:23:48;16.27;;;10.00;;
23410;SDS011;11878;51.774;7.220;2022-12-18T02:27:07;24.67;;;9.50;;
23410;SDS011;11878;51.774;7.220;2022-12-18T02:30:11;13.47;;;7.67;;
23410;SDS011;11878;51.774;7.220;2022-12-18T02:33:14;21.17;;;8.93;;
23410;SDS011;11878;51.774;7.220;2022-12-18T02:36:17;17.53;;;10.23;;
23410;SDS011;11878;51.774;7.220;2022-12-18T02:39:22;14.07;;;6.80;;
23410;SDS011;11878;51.774;7.220;2022-12-18T02:42:37;25.37;;;9.13;;
23410;SDS011;11878;51.774;7.220;2022-12-18T02:48:50;19.80;;;9.50;;
23410;SDS011;11878;51.774;7.220;2022-12-18T02:52:19;21.57;;;8.80;;
23410;SDS011;11878;51.774;7.220;2022-12-18T02:58:56;23.40;;;9.67;;
23410;SDS011;11878;51.774;7.220;2022-12-18T03:05:23;25.47;;;10.90;;
23410;SDS011;11878;51.774;7.220;2022-12-18T03:08:32;23.87;;;9.47;;
23410;SDS011;11878;51.774;7.220;2022-12-18T03:11:40;13.77;;;7.93;;
23410;SDS011;11878;51.774;7.220;2022-12-18T03:15:07;19.87;;;9.23;;
23410;SDS011;11878;51.774;7.220;2022-12-18T03:18:21;12.40;;;6.20;;
23410;SDS011;11878;51.774;7.220;2022-12-18T03:21:35;21.20;;;10.93;;
23410;SDS011;11878;51.774;7.220;2022-12-18T03:24:42;17.37;;;9.17;;
23410;SDS011;11878;51.774;7.220;2022-12-18T03:27:46;30.97;;;11.17;;
23410;SDS011;11878;51.774;7.220;2022-12-18T03:30:55;17.73;;;8.37;;
23410;SDS011;11878;51.774;7.220;2022-12-18T03:34:03;22.10;;;10.03;;
23410;SDS011;11878;51.774;7.220;2022-12-18T03:37:15;16.47;;;9.03;;
23410;SDS011;11878;51.774;7.220;2022-12-18T03:40:18;18.60;;;9.33;;
23410;SDS011;11878;51.774;7.220;2022-12-18T03:43:30;20.57;;;9.60;;
23410;SDS011;11878;51.774;7.220;2022-12-18T03:50:13;22.00;;;8.67;;
23410;SDS011;11878;51.774;7.220;2022-12-18T03:53:31;18.63;;;8.77;;
23410;SDS011;11878;51.774;7.220;2022-12-18T03:56:59;22.43;;;10.13;;
23410;SDS011;11878;51.774;7.220;2022-12-18T04:00:08;15.07;;;6.57;;
23410;SDS011;11878;51.774;7.220;2022-12-18T04:03:26;22.30;;;8.30;;
23410;SDS011;11878;51.774;7.220;2022-12-18T04:06:31;17.30;;;9.17;;
23410;SDS011;11878;51.774;7.220;2022-12-18T04:09:34;20.03;;;9.63;;
23410;SDS011;11878;51.774;7.220;2022-12-18T04:12:37;18.80;;;8.47;;
23410;SDS011;11878;51.774;7.220;2022-12-18T04:15:43;21.70;;;8.23;;
23410;SDS011;11878;51.774;7.220;2022-12-18T04:18:52;26.03;;;11.43;;
23410;SDS011;11878;51.774;7.220;2022-12-18T04:21:57;19.20;;;9.77;;
23410;SDS011;11878;51.774;7.220;2022-12-18T04:25:00;11.33;;;6.43;;
23410;SDS011;11878;51.774;7.220;2022-12-18T04:28:09;12.07;;;7.50;;
23410;SDS011;11878;51.774;7.220;2022-12-18T04:31:12;20.70;;;9.30;;
23410;SDS011;11878;51.774;7.220;2022-12-18T04:34:14;19.17;;;9.23;;
23410;SDS011;11878;51.774;7.220;2022-12-18T04:37:22;17.03;;;9.20;;
23410;SDS011;11878;51.774;7.220;2022-12-18T04:40:24;17.93;;;9.27;;
23410;SDS011;11878;51.774;7.220;2022-12-18T04:43:26;14.43;;;9.37;;
23410;SDS011;11878;51.774;7.220;2022-12-18T04:46:28;15.07;;;8.03;;
23410;SDS011;11878;51.774;7.220;2022-12-18T04:49:30;19.20;;;10.10;;
23410;SDS011;11878;51.774;7.220;2022-12-18T04:52:32;17.67;;;9.20;;
23410;SDS011;11878;51.774;7.220;2022-12-18T04:55:33;18.87;;;10.17;;
23410;SDS011;11878;51.774;7.220;2022-12-18T04:58:35;19.80;;;9.20;;
23410;SDS011;11878;51.774;7.220;2022-12-18T05:01:38;16.30;;;7.30;;
23410;SDS011;11878;51.774;7.220;2022-12-18T05:04:40;11.77;;;7.13;;
23410;SDS011;11878;51.774;7.220;2022-12-18T05:07:41;20.90;;;9.13;;
23410;SDS011;11878;51.774;7.220;2022-12-18T05:10:43;17.80;;;8.43;;
23410;SDS011;11878;51.774;7.220;2022-12-18T05:13:46;11.03;;;7.17;;
23410;SDS011;11878;51.774;7.220;2022-12-18T05:16:47;17.10;;;8.40;;
23410;SDS011;11878;51.774;7.220;2022-12-18T05:19:49;15.70;;;8.47;;
23410;SDS011;11878;51.774;7.220;2022-12-18T05:22:51;17.93;;;7.63;;
23410;SDS011;11878;51.774;7.220;2022-12-18T05:25:54;21.00;;;8.60;;
23410;SDS011;11878;51.774;7.220;2022-12-18T05:28:57;13.23;;;6.90;;
23410;SDS011;11878;51.774;7.220;2022-12-18T05:32:00;18.47;;;7.03;;
23410;SDS011;11878;51.774;7.220;2022-12-18T05:35:02;12.83;;;6.30;;
23410;SDS011;11878;51.774;7.220;2022-12-18T05:38:04;12.87;;;7.20;;
23410;SDS011;11878;51.774;7.220;2022-12-18T05:41:06;21.17;;;8.53;;
23410;SDS011;11878;51.774;7.220;2022-12-18T05:44:09;22.93;;;8.13;;
23410;SDS011;11878;51.774;7.220;2022-12-18T05:47:11;12.47;;;7.33;;
23410;SDS011;11878;51.774;7.220;2022-12-18T05:50:12;21.07;;;9.03;;
23410;SDS011;11878;51.774;7.220;2022-12-18T05:53:15;15.73;;;8.73;;
23410;SDS011;11878;51.774;7.220;2022-12-18T05:56:20;16.53;;;7.83;;
23410;SDS011;11878;51.774;7.220;2022-12-18T05:59:23;18.30;;;7.73;;
23410;SDS011;11878;51.774;7.220;2022-12-18T06:02:25;19.50;;;7.07;;
23410;SDS011;11878;51.774;7.220;2022-12-18T06:05:27;15.30;;;8.90;;
23410;SDS011;11878;51.774;7.220;2022-12-18T06:08:29;14.63;;;7.23;;
23410;SDS011;11878;51.774;7.220;2022-12-18T06:11:31;13.93;;;6.07;;
23410;SDS011;11878;51.774;7.220;2022-12-18T06:14:32;15.00;;;8.43;;
23410;SDS011;11878;51.774;7.220;2022-12-18T06:17:34;13.73;;;6.17;;
23410;SDS011;11878;51.774;7.220;2022-12-18T06:20:36;14.90;;;6.60;;
23410;SDS011;11878;51.774;7.220;2022-12-18T06:23:40;11.03;;;6.07;;
23410;SDS011;11878;51.774;7.220;2022-12-18T06:26:43;12.27;;;6.23;;
23410;SDS011;11878;51.774;7.220;2022-12-18T06:29:45;12.53;;;6.33;;
23410;SDS011;11878;51.774;7.220;2022-12-18T06:32:47;14.47;;;8.10;;
23410;SDS011;11878;51.774;7.220;2022-12-18T06:36:01;16.40;;;8.00;;
23410;SDS011;11878;51.774;7.220;2022-12-18T06:39:49;17.93;;;8.43;;
23410;SDS011;11878;51.774;7.220;2022-12-18T06:43:15;12.60;;;6.90;;
23410;SDS011;11878;51.774;7.220;2022-12-18T06:46:23;19.97;;;10.00;;
23410;SDS011;11878;51.774;7.220;2022-12-18T06:49:25;19.13;;;9.00;;
23410;SDS011;11878;51.774;7.220;2022-12-18T06:52:31;20.50;;;9.77;;
23410;SDS011;11878;51.774;7.220;2022-12-18T06:55:33;15.27;;;7.87;;
23410;SDS011;11878;51.774;7.220;2022-12-18T06:58:35;18.40;;;9.73;;
23410;SDS011;11878;51.774;7.220;2022-12-18T07:01:37;14.37;;;7.73;;
23410;SDS011;11878;51.774;7.220;2022-12-18T07:04:39;20.33;;;9.57;;
23410;SDS011;11878;51.774;7.220;2022-12-18T07:07:41;13.17;;;7.40;;
23410;SDS011;11878;51.774;7.220;2022-12-18T07:10:43;15.07;;;7.57;;
23410;SDS011;11878;51.774;7.220;2022-12-18T07:13:49;15.53;;;7.63;;
23410;SDS011;11878;51.774;7.220;2022-12-18T07:16:53;17.07;;;8.50;;
23410;SDS011;11878;51.774;7.220;2022-12-18T07:19:55;13.30;;;7.50;;
23410;SDS011;11878;51.774;7.220;2022-12-18T07:22:57;20.20;;;9.37;;
23410;SDS011;11878;51.774;7.220;2022-12-18T07:26:03;15.33;;;8.23;;
23410;SDS011;11878;51.774;7.220;2022-12-18T07:29:10;21.77;;;8.40;;
23410;SDS011;11878;51.774;7.220;2022-12-18T07:32:12;18.20;;;8.00;;
23410;SDS011;11878;51.774;7.220;2022-12-18T07:35:14;19.93;;;9.13;;
23410;SDS011;11878;51.774;7.220;2022-12-18T07:38:22;12.23;;;7.97;;
23410;SDS011;11878;51.774;7.220;2022-12-18T07:41:24;15.13;;;8.97;;
23410;SDS011;11878;51.774;7.220;2022-12-18T07:44:25;14.23;;;7.20;;
23410;SDS011;11878;51.774;7.220;2022-12-18T07:47:28;13.27;;;6.13;;
23410;SDS011;11878;51.774;7.220;2022-12-18T07:50:35;12.77;;;6.20;;
23410;SDS011;11878;51.774;7.220;2022-12-18T07:53:38;17.10;;;8.03;;
23410;SDS011;11878;51.774;7.220;2022-12-18T07:56:40;15.60;;;8.03;;
23410;SDS011;11878;51.774;7.220;2022-12-18T07:59:45;10.00;;;6.00;;
23410;SDS011;11878;51.774;7.220;2022-12-18T08:02:47;12.83;;;7.33;;
23410;SDS011;11878;51.774;7.220;2022-12-18T08:05:49;19.07;;;6.60;;
23410;SDS011;11878;51.774;7.220;2022-12-18T08:08:52;15.07;;;7.70;;
23410;SDS011;11878;51.774;7.220;2022-12-18T08:11:54;11.40;;;6.07;;
23410;SDS011;11878;51.774;7.220;2022-12-18T08:14:56;14.70;;;8.00;;
23410;SDS011;11878;51.774;7.220;2022-12-18T08:17:58;13.27;;;7.20;;
23410;SDS011;11878;51.774;7.220;2022-12-18T08:24:21;16.33;;;8.23;;
23410;SDS011;11878;51.774;7.220;2022-12-18T08:27:23;18.67;;;8.00;;
23410;SDS011;11878;51.774;7.220;2022-12-18T08:30:30;15.77;;;7.50;;
23410;SDS011;11878;51.774;7.220;2022-12-18T08:33:32;14.07;;;7.03;;
23410;SDS011;11878;51.774;7.220;2022-12-18T08:36:35;15.43;;;6.80;;
23410;SDS011;11878;51.774;7.220;2022-12-18T08:39:37;16.03;;;6.97;;
23410;SDS011;11878;51.774;7.220;2022-12-18T08:42:38;14.40;;;7.70;;
23410;SDS011;11878;51.774;7.220;2022-12-18T08:45:59;21.07;;;7.80;;
23410;SDS011;11878;51.774;7.220;2022-12-18T08:49:01;16.63;;;6.77;;
23410;SDS011;11878;51.774;7.220;2022-12-18T08:52:04;10.93;;;6.93;;
23410;SDS011;11878;51.774;7.220;2022-12-18T08:55:06;17.33;;;8.30;;
23410;SDS011;11878;51.774;7.220;2022-12-18T08:58:08;15.20;;;8.93;;
23410;SDS011;11878;51.774;7.220;2022-12-18T09:01:11;12.87;;;7.47;;
23410;SDS011;11878;51.774;7.220;2022-12-18T09:04:13;16.67;;;7.07;;
23410;SDS011;11878;51.774;7.220;2022-12-18T09:07:15;18.57;;;9.40;;
23410;SDS011;11878;51.774;7.220;2022-12-18T09:10:17;16.90;;;7.77;;
23410;SDS011;11878;51.774;7.220;2022-12-18T09:13:21;12.73;;;7.43;;
23410;SDS011;11878;51.774;7.220;2022-12-18T09:16:23;20.17;;;9.47;;
23410;SDS011;11878;51.774;7.220;2022-12-18T09:19:32;14.47;;;7.43;;
23410;SDS011;11878;51.774;7.220;2022-12-18T09:22:34;15.33;;;6.77;;
23410;SDS011;11878;51.774;7.220;2022-12-18T09:25:35;18.43;;;9.03;;
23410;SDS011;11878;51.774;7.220;2022-12-18T09:28:38;16.37;;;7.27;;
23410;SDS011;11878;51.774;7.220;2022-12-18T09:31:40;17.93;;;7.77;;
23410;SDS011;11878;51.774;7.220;2022-12-18T09:34:42;12.07;;;6.67;;
23410;SDS011;11878;51.774;7.220;2022-12-18T09:37:43;15.53;;;7.17;;
23410;SDS011;11878;51.774;7.220;2022-12-18T09:40:49;11.50;;;5.53;;
23410;SDS011;11878;51.774;7.220;2022-12-18T09:43:55;19.93;;;7.87;;
23410;SDS011;11878;51.774;7.220;2022-12-18T09:50:27;16.13;;;6.73;;
23410;SDS011;11878;51.774;7.220;2022-12-18T09:53:33;12.80;;;6.77;;
23410;SDS011;11878;51.774;7.220;2022-12-18T09:56:39;10.80;;;5.83;;
23410;SDS011;11878;51.774;7.220;2022-12-18T09:59:44;8.87;;;5.00;;
23410;SDS011;11878;51.774;7.220;2022-12-18T10:02:51;10.30;;;4.67;;
23410;SDS011;11878;51.774;7.220;2022-12-18T10:09:43;13.10;;;5.73;;
23410;SDS011;11878;51.774;7.220;2022-12-18T10:19:23;15.97;;;6.63;;
23410;SDS011;11878;51.774;7.220;2022-12-18T10:22:35;11.03;;;5.67;;
23410;SDS011;11878;51.774;7.220;2022-12-18T10:26:02;9.00;;;6.23;;
23410;SDS011;11878;51.774;7.220;2022-12-18T10:29:10;12.50;;;5.87;;
23410;SDS011;11878;51.774;7.220;2022-12-18T10:32:18;13.27;;;5.33;;
23410;SDS011;11878;51.774;7.220;2022-12-18T10:35:24;11.07;;;5.87;;
23410;SDS011;11878;51.774;7.220;2022-12-18T10:38:28;9.03;;;4.57;;
23410;SDS011;11878;51.774;7.220;2022-12-18T10:41:32;10.03;;;5.37;;
23410;SDS011;11878;51.774;7.220;2022-12-18T10:44:34;13.50;;;5.70;;
23410;SDS011;11878;51.774;7.220;2022-12-18T10:47:36;9.63;;;4.00;;
23410;SDS011;11878;51.774;7.220;2022-12-18T10:50:42;12.30;;;5.23;;
23410;SDS011;11878;51.774;7.220;2022-12-18T10:54:17;8.17;;;4.60;;
23410;SDS011;11878;51.774;7.220;2022-12-18T11:00:28;11.33;;;4.93;;
23410;SDS011;11878;51.774;7.220;2022-12-18T11:03:33;18.00;;;6.43;;
23410;SDS011;11878;51.774;7.220;2022-12-18T11:06:52;9.10;;;4.80;;
23410;SDS011;11878;51.774;7.220;2022-12-18T11:10:14;7.70;;;4.07;;
23410;SDS011;11878;51.774;7.220;2022-12-18T11:13:20;14.67;;;6.17;;
23410;SDS011;11878;51.774;7.220;2022-12-18T11:16:23;19.87;;;6.33;;
23410;SDS011;11878;51.774;7.220;2022-12-18T11:22:31;11.10;;;6.20;;
23410;SDS011;11878;51.774;7.220;2022-12-18T11:25:34;9.23;;;4.23;;
23410;SDS011;11878;51.774;7.220;2022-12-18T11:28:39;12.90;;;6.20;;
23410;SDS011;11878;51.774;7.220;2022-12-18T11:31:46;11.33;;;4.53;;
23410;SDS011;11878;51.774;7.220;2022-12-18T11:34:50;10.13;;;4.77;;
23410;SDS011;11878;51.774;7.220;2022-12-18T11:38:02;10.13;;;4.87;;
23410;SDS011;11878;51.774;7.220;2022-12-18T11:41:30;7.47;;;4.17;;
23410;SDS011;11878;51.774;7.220;2022-12-18T11:51:33;10.93;;;4.83;;
23410;SDS011;11878;51.774;7.220;2022-12-18T11:54:39;11.37;;;4.87;;
23410;SDS011;11878;51.774;7.220;2022-12-18T12:01:29;4.67;;;3.40;;
23410;SDS011;11878;51.774;7.220;2022-12-18T12:08:15;15.93;;;4.43;;
23410;SDS011;11878;51.774;7.220;2022-12-18T12:18:50;11.93;;;6.03;;
23410;SDS011;11878;51.774;7.220;2022-12-18T12:39:01;9.37;;;4.30;;
23410;SDS011;11878;51.774;7.220;2022-12-18T12:42:18;8.43;;;4.33;;
23410;SDS011;11878;51.774;7.220;2022-12-18T12:45:48;8.03;;;4.17;;
23410;SDS011;11878;51.774;7.220;2022-12-18T12:49:03;6.30;;;3.90;;
23410;SDS011;11878;51.774;7.220;2022-12-18T12:52:28;7.30;;;4.10;;
23410;SDS011;11878;51.774;7.220;2022-12-18T12:55:34;8.20;;;4.63;;
23410;SDS011;11878;51.774;7.220;2022-12-18T13:08:52;6.33;;;3.97;;
23410;SDS011;11878;51.774;7.220;2022-12-18T13:12:01;10.40;;;4.97;;
23410;SDS011;11878;51.774;7.220;2022-12-18T13:18:56;7.63;;;4.60;;
23410;SDS011;11878;51.774;7.220;2022-12-18T13:21:59;9.70;;;4.70;;
23410;SDS011;11878;51.774;7.220;2022-12-18T13:25:02;13.50;;;5.13;;
23410;SDS011;11878;51.774;7.220;2022-12-18T13:34:42;11.20;;;5.07;;
23410;SDS011;11878;51.774;7.220;2022-12-18T13:37:51;9.80;;;5.00;;
23410;SDS011;11878;51.774;7.220;2022-12-18T13:40:54;9.03;;;5.70;;
23410;SDS011;11878;51.774;7.220;2022-12-18T13:44:10;15.00;;;5.77;;
23410;SDS011;11878;51.774;7.220;2022-12-18T13:47:38;11.10;;;5.87;;
23410;SDS011;11878;51.774;7.220;2022-12-18T13:50:40;11.97;;;6.30;;
23410;SDS011;11878;51.774;7.220;2022-12-18T13:53:43;10.33;;;5.27;;
23410;SDS011;11878;51.774;7.220;2022-12-18T13:56:49;14.10;;;5.17;;
23410;SDS011;11878;51.774;7.220;2022-12-18T13:59:51;8.67;;;4.80;;
23410;SDS011;11878;51.774;7.220;2022-12-18T14:02:52;7.07;;;3.80;;
23410;SDS011;11878;51.774;7.220;2022-12-18T14:05:59;7.70;;;3.90;;
23410;SDS011;11878;51.774;7.220;2022-12-18T14:09:04;10.77;;;4.30;;
23410;SDS011;11878;51.774;7.220;2022-12-18T14:12:14;9.20;;;4.87;;
23410;SDS011;11878;51.774;7.220;2022-12-18T14:15:42;12.00;;;5.33;;
23410;SDS011;11878;51.774;7.220;2022-12-18T14:18:50;7.13;;;4.43;;
23410;SDS011;11878;51.774;7.220;2022-12-18T14:22:02;8.30;;;4.20;;
23410;SDS011;11878;51.774;7.220;2022-12-18T14:28:23;9.17;;;4.87;;
23410;SDS011;11878;51.774;7.220;2022-12-18T14:31:25;10.00;;;4.50;;
23410;SDS011;11878;51.774;7.220;2022-12-18T14:34:29;13.93;;;4.87;;
23410;SDS011;11878;51.774;7.220;2022-12-18T14:37:30;13.63;;;6.27;;
23410;SDS011;11878;51.774;7.220;2022-12-18T14:40:32;8.33;;;4.67;;
23410;SDS011;11878;51.774;7.220;2022-12-18T14:43:35;9.83;;;4.77;;
23410;SDS011;11878;51.774;7.220;2022-12-18T14:46:39;9.03;;;5.03;;
23410;SDS011;11878;51.774;7.220;2022-12-18T14:49:43;10.40;;;4.40;;
23410;SDS011;11878;51.774;7.220;2022-12-18T14:52:45;10.10;;;5.10;;
23410;SDS011;11878;51.774;7.220;2022-12-18T14:55:47;6.63;;;4.70;;
23410;SDS011;11878;51.774;7.220;2022-12-18T14:58:51;8.97;;;4.53;;
23410;SDS011;11878;51.774;7.220;2022-12-18T15:05:18;10.67;;;5.47;;
23410;SDS011;11878;51.774;7.220;2022-12-18T15:08:27;12.90;;;5.00;;
23410;SDS011;11878;51.774;7.220;2022-12-18T15:11:34;12.60;;;6.60;;
23410;SDS011;11878;51.774;7.220;2022-12-18T15:14:42;12.87;;;7.47;;
23410;SDS011;11878;51.774;7.220;2022-12-18T15:17:44;12.17;;;7.30;;
23410;SDS011;11878;51.774;7.220;2022-12-18T15:20:53;14.27;;;7.67;;
23410;SDS011;11878;51.774;7.220;2022-12-18T15:24:00;14.67;;;7.30;;
23410;SDS011;11878;51.774;7.220;2022-12-18T15:27:02;11.47;;;7.17;;
23410;SDS011;11878;51.774;7.220;2022-12-18T15:33:45;10.47;;;6.13;;
23410;SDS011;11878;51.774;7.220;2022-12-18T15:36:44;14.60;;;7.37;;
23410;SDS011;11878;51.774;7.220;2022-12-18T15:39:46;11.37;;;6.53;;
23410;SDS011;11878;51.774;7.220;2022-12-18T15:42:48;12.57;;;7.40;;
23410;SDS011;11878;51.774;7.220;2022-12-18T15:46:11;14.70;;;7.13;;
23410;SDS011;11878;51.774;7.220;2022-12-18T15:49:14;16.23;;;7.10;;
23410;SDS011;11878;51.774;7.220;2022-12-18T15:52:16;14.23;;;7.13;;
23410;SDS011;11878;51.774;7.220;2022-12-18T15:55:26;14.77;;;7.57;;
23410;SDS011;11878;51.774;7.220;2022-12-18T15:58:47;13.47;;;6.97;;
23410;SDS011;11878;51.774;7.220;2022-12-18T16:01:50;11.33;;;7.03;;
23410;SDS011;11878;51.774;7.220;2022-12-18T16:04:54;11.70;;;6.93;;
23410;SDS011;11878;51.774;7.220;2022-12-18T16:07:56;16.90;;;7.07;;
23410;SDS011;11878;51.774;7.220;2022-12-18T16:10:58;15.07;;;7.70;;
23410;SDS011;11878;51.774;7.220;2022-12-18T16:14:00;13.60;;;8.20;;
23410;SDS011;11878;51.774;7.220;2022-12-18T16:17:03;15.10;;;8.67;;
23410;SDS011;11878;51.774;7.220;2022-12-18T16:20:17;19.10;;;8.70;;
23410;SDS011;11878;51.774;7.220;2022-12-18T16:23:21;25.53;;;11.13;;
23410;SDS011;11878;51.774;7.220;2022-12-18T16:26:23;22.30;;;11.47;;
23410;SDS011;11878;51.774;7.220;2022-12-18T16:29:25;36.77;;;13.03;;
23410;SDS011;11878;51.774;7.220;2022-12-18T16:32:28;32.07;;;15.83;;
23410;SDS011;11878;51.774;7.220;2022-12-18T16:35:31;35.67;;;16.93;;
23410;SDS011;11878;51.774;7.220;2022-12-18T16:38:33;26.53;;;12.70;;
23410;SDS011;11878;51.774;7.220;2022-12-18T16:41:35;24.03;;;13.03;;
23410;SDS011;11878;51.774;7.220;2022-12-18T16:44:37;21.30;;;12.20;;
23410;SDS011;11878;51.774;7.220;2022-12-18T16:47:39;19.37;;;10.97;;
23410;SDS011;11878;51.774;7.220;2022-12-18T16:50:41;29.27;;;11.90;;
23410;SDS011;11878;51.774;7.220;2022-12-18T16:53:43;24.17;;;12.03;;
23410;SDS011;11878;51.774;7.220;2022-12-18T16:56:45;22.27;;;12.83;;
23410;SDS011;11878;51.774;7.220;2022-12-18T16:59:50;27.23;;;13.33;;
23410;SDS011;11878;51.774;7.220;2022-12-18T17:02:51;41.83;;;16.57;;
23410;SDS011;11878;51.774;7.220;2022-12-18T17:05:55;32.87;;;15.80;;
23410;SDS011;11878;51.774;7.220;2022-12-18T17:09:04;26.87;;;13.87;;
23410;SDS011;11878;51.774;7.220;2022-12-18T17:12:08;27.43;;;11.20;;
23410;SDS011;11878;51.774;7.220;2022-12-18T17:15:10;20.10;;;9.97;;
23410;SDS011;11878;51.774;7.220;2022-12-18T17:18:12;23.67;;;10.67;;
23410;SDS011;11878;51.774;7.220;2022-12-18T17:21:16;19.37;;;8.80;;
23410;SDS011;11878;51.774;7.220;2022-12-18T17:24:18;12.83;;;8.20;;
23410;SDS011;11878;51.774;7.220;2022-12-18T17:27:20;18.20;;;9.20;;
23410;SDS011;11878;51.774;7.220;2022-12-18T17:30:21;23.23;;;8.97;;
23410;SDS011;11878;51.774;7.220;2022-12-18T17:33:24;16.77;;;8.50;;
23410;SDS011;11878;51.774;7.220;2022-12-18T17:36:25;16.47;;;8.47;;
23410;SDS011;11878;51.774;7.220;2022-12-18T17:39:29;18.27;;;9.53;;
23410;SDS011;11878;51.774;7.220;2022-12-18T17:42:31;17.40;;;9.47;;
23410;SDS011;11878;51.774;7.220;2022-12-18T17:45:36;19.77;;;8.43;;
23410;SDS011;11878;51.774;7.220;2022-12-18T17:48:39;25.90;;;10.97;;
23410;SDS011;11878;51.774;7.220;2022-12-18T17:51:41;14.87;;;6.97;;
23410;SDS011;11878;51.774;7.220;2022-12-18T17:54:43;18.27;;;8.90;;
23410;SDS011;11878;51.774;7.220;2022-12-18T17:57:45;20.83;;;9.17;;
23410;SDS011;11878;51.774;7.220;2022-12-18T18:00:47;17.97;;;9.07;;
23410;SDS011;11878;51.774;7.220;2022-12-18T18:03:49;14.93;;;7.40;;
23410;SDS011;11878;51.774;7.220;2022-12-18T18:06:54;16.70;;;9.37;;
23410;SDS011;11878;51.774;7.220;2022-12-18T18:09:55;21.67;;;8.27;;
23410;SDS011;11878;51.774;7.220;2022-12-18T18:12:57;12.20;;;7.33;;
23410;SDS011;11878;51.774;7.220;2022-12-18T18:16:44;23.10;;;8.87;;
23410;SDS011;11878;51.774;7.220;2022-12-18T18:19:48;33.10;;;11.90;;
23410;SDS011;11878;51.774;7.220;2022-12-18T18:22:50;24.60;;;11.23;;
23410;SDS011;11878;51.774;7.220;2022-12-18T18:25:51;21.77;;;9.87;;
23410;SDS011;11878;51.774;7.220;2022-12-18T18:28:54;20.13;;;9.30;;
23410;SDS011;11878;51.774;7.220;2022-12-18T18:31:56;19.90;;;10.30;;
23410;SDS011;11878;51.774;7.220;2022-12-18T18:34:59;15.37;;;8.67;;
23410;SDS011;11878;51.774;7.220;2022-12-18T18:38:01;14.33;;;7.57;;
23410;SDS011;11878;51.774;7.220;2022-12-18T18:41:05;26.17;;;10.30;;
23410;SDS011;11878;51.774;7.220;2022-12-18T18:44:08;17.40;;;8.93;;
23410;SDS011;11878;51.774;7.220;2022-12-18T18:47:10;19.13;;;9.47;;
23410;SDS011;11878;51.774;7.220;2022-12-18T18:50:12;15.43;;;8.27;;
23410;SDS011;11878;51.774;7.220;2022-12-18T18:53:13;25.90;;;10.43;;
23410;SDS011;11878;51.774;7.220;2022-12-18T18:56:16;21.73;;;9.50;;
23410;SDS011;11878;51.774;7.220;2022-12-18T18:59:40;20.50;;;9.90;;
23410;SDS011;11878;51.774;7.220;2022-12-18T19:02:42;20.53;;;9.93;;
23410;SDS011;11878;51.774;7.220;2022-12-18T19:05:48;18.90;;;9.33;;
23410;SDS011;11878;51.774;7.220;2022-12-18T19:09:01;22.13;;;9.40;;
23410;SDS011;11878;51.774;7.220;2022-12-18T19:12:05;19.27;;;9.30;;
23410;SDS011;11878;51.774;7.220;2022-12-18T19:15:25;22.00;;;10.63;;
23410;SDS011;11878;51.774;7.220;2022-12-18T19:18:27;25.93;;;9.53;;
23410;SDS011;11878;51.774;7.220;2022-12-18T19:21:29;22.73;;;10.53;;
23410;SDS011;11878;51.774;7.220;2022-12-18T19:24:34;21.70;;;10.20;;
23410;SDS011;11878;51.774;7.220;2022-12-18T19:27:36;32.60;;;11.73;;
23410;SDS011;11878;51.774;7.220;2022-12-18T19:30:40;21.40;;;10.33;;
23410;SDS011;11878;51.774;7.220;2022-12-18T19:33:43;23.80;;;11.10;;
23410;SDS011;11878;51.774;7.220;2022-12-18T19:36:46;23.83;;;9.93;;
23410;SDS011;11878;51.774;7.220;2022-12-18T19:39:47;23.03;;;9.47;;
23410;SDS011;11878;51.774;7.220;2022-12-18T19:42:49;26.90;;;10.57;;
23410;SDS011;11878;51.774;7.220;2022-12-18T19:45:54;22.63;;;10.27;;
23410;SDS011;11878;51.774;7.220;2022-12-18T19:48:57;22.07;;;9.33;;
23410;SDS011;11878;51.774;7.220;2022-12-18T19:52:01;22.17;;;10.27;;
23410;SDS011;11878;51.774;7.220;2022-12-18T19:55:02;20.63;;;10.17;;
23410;SDS011;11878;51.774;7.220;2022-12-18T19:58:04;25.50;;;10.50;;
23410;SDS011;11878;51.774;7.220;2022-12-18T20:01:06;27.53;;;10.30;;
23410;SDS011;11878;51.774;7.220;2022-12-18T20:04:09;25.20;;;10.83;;
23410;SDS011;11878;51.774;7.220;2022-12-18T20:07:11;21.13;;;10.77;;
23410;SDS011;11878;51.774;7.220;2022-12-18T20:10:13;20.87;;;10.17;;
23410;SDS011;11878;51.774;7.220;2022-12-18T20:13:17;26.00;;;12.07;;
23410;SDS011;11878;51.774;7.220;2022-12-18T20:16:19;18.77;;;9.27;;
23410;SDS011;11878;51.774;7.220;2022-12-18T20:19:21;27.53;;;11.33;;